Impacts TAF Board INFO
FOR SITUATIONAL AWARENESS. NOT TO BE USED FOR FLIGHT PLANNING PURPOSES.
IDs:

KMIA - Miami Intl, FL, US

Issued at 1123 UTC 21 Jan 2018
Updated at 1422 UTC 21 Jan 2018
Potential Impact None Slight Moderate High
Time1353Z 21/15Z 21/16Z 21/17Z 21/18Z 21/19Z 21/20Z 21/21Z 21/22Z 21/23Z 22/00Z 22/01Z 22/02Z 22/03Z>>
Type OBS PRVL PRVL PRVL PRVL PRVL PRVL PRVL PRVL PRVL PRVL PRVL PRVL PRVL
VIS 10 >6 >6 >6 >6 >6 >6 >6 >6 >6 >6 >6 >6 >6
CIG 140 60 60 60 60 60 60 60 60 60 -- -- -- --
Cover OVC BKN BKN BKN BKN BKN BKN BKN BKN BKN SCT SCT SCT SCT
FltCat VFR VFR VFR VFR VFR VFR VFR VFR VFR VFR VFR VFR VFR VFR
WX -- -- -- -- -- -- -- -- -- -- -- -- -- --
WDir 110 100 100 100 100 100 100 100 100 100 100 100 100 100
WSpd 12 12 12 12 12 12 12 12 12 12 8 8 8 8
WGst -- -- -- -- -- -- -- -- -- -- -- -- -- --

Raw TAF
KMIA 211123Z 2112/2218 10012KT P6SM SCT035 BKN060
  FM220000 10008KT P6SM FEW030 SCT250


Raw METAR
KMIA 211353Z 11012KT 10SM FEW021 SCT080 BKN140 OVC200 23/19 A3016 RMK AO2 SLP212 T02330189
KMIA 211253Z 11010KT 10SM FEW025 SCT080 BKN130 OVC200 23/19 A3015 RMK AO2 SLP211 T02280189
KMIA 211153Z COR 10011KT 10SM FEW030 SCT080 BKN130 OVC200 22/18 A3014 RMK AO2 SLP205 T02170183 10222 20211 56009

METAR Board
Radar Display
Forecast Discussion

FOR SITUATIONAL AWARENESS. NOT TO BE USED FOR FLIGHT PLANNING PURPOSES.